createdAt,value
2023-04-27T00:00:44.831Z,98.11
2023-04-27T00:01:44.792Z,98.22
2023-04-27T00:02:45.110Z,98.11
2023-04-27T00:03:44.769Z,98.11
2023-04-27T00:04:45.114Z,97.91
2023-04-27T00:05:44.816Z,98.01
2023-04-27T00:06:44.571Z,98.22
2023-04-27T00:07:44.762Z,98.26
2023-04-27T00:08:44.776Z,98.26
2023-04-27T00:09:44.589Z,98.26
2023-04-27T00:10:44.703Z,98.26
2023-04-27T00:11:44.532Z,98.26
2023-04-27T00:12:44.511Z,98.36
2023-04-27T00:13:44.537Z,98.36
2023-04-27T00:14:44.524Z,98.36
2023-04-27T00:15:44.467Z,98.47
2023-04-27T00:16:44.625Z,98.47
2023-04-27T00:17:44.496Z,98.47
2023-04-27T00:18:44.442Z,98.57
2023-04-27T00:19:44.643Z,98.57
2023-04-27T00:20:44.447Z,98.57
2023-04-27T00:21:44.446Z,98.57
2023-04-27T00:22:44.486Z,98.47
2023-04-27T00:23:44.388Z,98.36
2023-04-27T00:24:44.384Z,98.36
2023-04-27T00:25:44.752Z,98.36
2023-04-27T00:26:44.388Z,98.47
2023-04-27T00:27:44.378Z,98.47
2023-04-27T00:28:44.323Z,98.47
2023-04-27T00:29:44.439Z,98.57
2023-04-27T00:30:44.284Z,98.62
2023-04-27T00:31:44.373Z,98.72
2023-04-27T00:32:44.324Z,98.93
2023-04-27T00:33:44.269Z,98.93
2023-04-27T00:34:44.453Z,99.04
2023-04-27T00:35:44.260Z,99.04
2023-04-27T00:36:44.484Z,99.04
2023-04-27T00:37:44.309Z,99.04
2023-04-27T00:38:44.476Z,99.04
2023-04-27T00:39:44.466Z,98.93
2023-04-27T00:40:44.245Z,98.93
2023-04-27T00:41:44.302Z,98.93
2023-04-27T00:42:44.316Z,98.97
2023-04-27T00:43:44.242Z,98.97
2023-04-27T00:44:44.399Z,98.97
2023-04-27T00:45:44.304Z,98.87
2023-04-27T00:46:44.180Z,98.77
2023-04-27T00:47:44.296Z,98.77
2023-04-27T00:48:44.281Z,98.77
2023-04-27T00:49:44.179Z,98.87
2023-04-27T00:50:44.865Z,98.97
2023-04-27T00:51:44.135Z,99.08
2023-04-27T00:52:44.205Z,99.18
2023-04-27T00:53:44.344Z,99.18
2023-04-27T00:54:44.258Z,99.18
2023-04-27T00:55:44.268Z,99.18
2023-04-27T00:56:44.066Z,99.18
2023-04-27T00:57:44.147Z,99.18
2023-04-27T00:58:44.275Z,99.18
2023-04-27T00:59:44.231Z,99.40
2023-04-27T01:00:44.148Z,99.50
2023-04-27T01:01:44.080Z,99.54
2023-04-27T01:02:44.339Z,99.50
2023-04-27T01:03:44.762Z,99.54
2023-04-27T01:04:44.785Z,99.65
2023-04-27T01:05:44.104Z,99.65
2023-04-27T01:06:44.016Z,99.75
2023-04-27T01:07:44.021Z,99.85
2023-04-27T01:08:43.969Z,99.96
2023-04-27T01:09:43.988Z,99.96
2023-04-27T01:10:43.946Z,99.99
2023-04-27T01:11:44.096Z,99.99
2023-04-27T01:12:44.170Z,99.96
2023-04-27T01:13:43.897Z,99.99
2023-04-27T01:14:44.246Z,99.99
2023-04-27T01:15:43.922Z,99.99
2023-04-27T01:16:44.008Z,99.99
2023-04-27T01:17:44.072Z,99.99
2023-04-27T01:18:43.896Z,99.99
2023-04-27T01:19:44.030Z,99.99
2023-04-27T01:20:43.844Z,99.99
2023-04-27T01:21:43.834Z,99.99
2023-04-27T01:22:43.946Z,99.99
2023-04-27T01:23:43.927Z,99.99
2023-04-27T01:24:43.804Z,99.99
2023-04-27T01:25:44.184Z,99.99
2023-04-27T01:26:43.819Z,99.99
2023-04-27T01:27:44.077Z,99.99
2023-04-27T01:28:43.772Z,99.99
2023-04-27T01:29:43.742Z,99.99
2023-04-27T01:30:43.756Z,99.99
2023-04-27T01:31:43.818Z,99.99
2023-04-27T01:32:43.740Z,99.99
2023-04-27T01:33:43.808Z,99.99
2023-04-27T01:34:43.680Z,99.99
2023-04-27T01:35:43.694Z,99.99
2023-04-27T01:36:43.699Z,99.99
2023-04-27T01:37:43.701Z,99.99
2023-04-27T01:38:43.650Z,99.99
2023-04-27T01:39:43.666Z,99.99
2023-04-27T01:40:43.652Z,99.99
2023-04-27T01:41:43.901Z,99.99
2023-04-27T01:42:43.765Z,99.99
2023-04-27T01:43:43.766Z,99.99
2023-04-27T01:44:43.774Z,99.99
2023-04-27T01:45:43.588Z,99.99
2023-04-27T01:46:43.733Z,99.99
2023-04-27T01:47:43.951Z,99.99
2023-04-27T01:48:43.811Z,99.99
2023-04-27T01:49:43.741Z,99.99
2023-04-27T01:50:43.600Z,99.99
2023-04-27T01:51:43.690Z,99.99
2023-04-27T01:52:43.704Z,99.99
2023-04-27T01:53:43.701Z,99.99
2023-04-27T01:54:43.635Z,99.99
2023-04-27T01:55:43.569Z,99.99
2023-04-27T01:56:43.750Z,99.99
2023-04-27T01:57:43.625Z,99.99
2023-04-27T01:58:43.512Z,99.99
2023-04-27T01:59:43.653Z,99.99
2023-04-27T02:00:43.463Z,99.99
2023-04-27T02:01:43.885Z,99.99
2023-04-27T02:02:43.597Z,99.99
2023-04-27T02:03:43.749Z,99.99
2023-04-27T02:04:43.720Z,99.99
2023-04-27T02:05:43.592Z,99.99
2023-04-27T02:06:43.395Z,99.99
2023-04-27T02:07:43.401Z,99.99
2023-04-27T02:08:43.747Z,99.99
2023-04-27T02:09:43.566Z,99.99
2023-04-27T02:10:43.379Z,99.99
2023-04-27T02:11:43.557Z,99.99
2023-04-27T02:12:43.355Z,99.99
2023-04-27T02:13:43.402Z,99.99
2023-04-27T02:14:43.391Z,99.99
2023-04-27T02:15:43.422Z,99.99
2023-04-27T02:16:43.374Z,99.99
2023-04-27T02:17:43.406Z,99.99
2023-04-27T02:18:43.319Z,99.99
2023-04-27T02:19:43.428Z,99.99
2023-04-27T02:20:43.429Z,99.99
2023-04-27T02:21:43.279Z,99.99
2023-04-27T02:22:43.294Z,99.99
2023-04-27T02:23:43.305Z,99.99
2023-04-27T02:24:43.707Z,99.99
2023-04-27T02:25:43.285Z,99.99
2023-04-27T02:26:43.601Z,99.99
2023-04-27T02:27:43.341Z,99.99
2023-04-27T02:28:43.193Z,99.99
2023-04-27T02:29:43.208Z,99.99
2023-04-27T02:30:43.189Z,99.99
2023-04-27T02:31:43.878Z,99.99
2023-04-27T02:32:43.215Z,99.99
2023-04-27T02:33:43.169Z,99.99
2023-04-27T02:34:43.509Z,99.99
2023-04-27T02:35:43.336Z,99.99
2023-04-27T02:36:43.125Z,99.99
2023-04-27T02:37:43.207Z,99.99
2023-04-27T02:38:43.124Z,99.99
2023-04-27T02:39:43.236Z,99.99
2023-04-27T02:40:43.233Z,99.99
2023-04-27T02:41:43.104Z,99.99
2023-04-27T02:42:43.198Z,99.99
2023-04-27T02:43:43.286Z,99.99
2023-04-27T02:44:43.354Z,99.99
2023-04-27T02:45:43.236Z,99.99
2023-04-27T02:46:43.324Z,99.99
2023-04-27T02:47:43.267Z,99.99
2023-04-27T02:48:43.179Z,99.99
2023-04-27T02:49:43.210Z,99.99
2023-04-27T02:50:43.123Z,99.99
2023-04-27T02:51:42.997Z,99.99
2023-04-27T02:52:43.000Z,99.99
2023-04-27T02:53:43.132Z,99.99
2023-04-27T02:54:43.155Z,99.99
2023-04-27T02:55:42.957Z,99.99
2023-04-27T02:56:43.020Z,99.99
2023-04-27T02:57:42.917Z,99.99
2023-04-27T02:58:42.958Z,99.99
2023-04-27T02:59:42.917Z,99.99
2023-04-27T03:00:42.931Z,99.99
2023-04-27T03:01:42.993Z,99.99
2023-04-27T03:02:43.077Z,99.99
2023-04-27T03:03:43.008Z,99.99
2023-04-27T03:04:42.957Z,99.99
2023-04-27T03:05:43.039Z,99.99
2023-04-27T03:06:42.855Z,99.99
2023-04-27T03:07:43.023Z,99.99
2023-04-27T03:08:42.943Z,99.99
2023-04-27T03:09:42.805Z,99.99
2023-04-27T03:10:43.145Z,99.99
2023-04-27T03:11:42.826Z,99.99
2023-04-27T03:12:42.766Z,99.99
2023-04-27T03:13:42.894Z,99.99
2023-04-27T03:14:42.785Z,99.99
2023-04-27T03:15:42.933Z,99.99
2023-04-27T03:16:42.790Z,99.99
2023-04-27T03:17:42.752Z,99.99
2023-04-27T03:18:42.751Z,99.99
2023-04-27T03:19:42.945Z,99.99
2023-04-27T03:20:42.731Z,99.99
2023-04-27T03:21:43.186Z,99.99
2023-04-27T03:22:42.750Z,99.99
2023-04-27T03:23:42.663Z,99.99
2023-04-27T03:24:42.697Z,99.99
2023-04-27T03:25:42.745Z,99.99
2023-04-27T03:26:42.684Z,99.99
2023-04-27T03:27:42.638Z,99.99
2023-04-27T03:28:42.828Z,99.99
2023-04-27T03:29:42.649Z,99.99
2023-04-27T03:30:42.700Z,99.99
2023-04-27T03:31:42.888Z,99.99
2023-04-27T03:32:43.220Z,99.99
2023-04-27T03:33:42.788Z,99.99
2023-04-27T03:34:42.610Z,99.99
2023-04-27T03:35:42.656Z,99.99
2023-04-27T03:36:42.736Z,99.99
2023-04-27T03:37:42.603Z,99.99
2023-04-27T03:38:42.710Z,99.99
2023-04-27T03:39:42.875Z,99.99
2023-04-27T03:40:42.676Z,99.99
2023-04-27T03:41:42.527Z,99.99
2023-04-27T03:42:42.523Z,99.99
2023-04-27T03:43:42.563Z,99.99
2023-04-27T03:44:42.612Z,99.99
2023-04-27T03:45:42.601Z,99.99
2023-04-27T03:46:42.664Z,99.99
2023-04-27T03:47:42.604Z,99.99
2023-04-27T03:48:42.444Z,99.99
2023-04-27T03:49:42.621Z,99.99
2023-04-27T03:50:42.464Z,99.99
2023-04-27T03:51:42.427Z,99.99
2023-04-27T03:52:42.519Z,99.99
2023-04-27T03:53:42.721Z,99.99
2023-04-27T03:54:42.423Z,99.99
2023-04-27T03:55:42.404Z,99.99
2023-04-27T03:56:42.412Z,99.99
2023-04-27T03:57:42.415Z,99.99
2023-04-27T03:58:42.396Z,99.99
2023-04-27T03:59:42.350Z,99.99
2023-04-27T04:00:42.350Z,99.99
2023-04-27T04:01:42.379Z,99.99
2023-04-27T04:02:42.417Z,99.99
2023-04-27T04:03:42.625Z,99.99
2023-04-27T04:04:42.506Z,99.99
2023-04-27T04:05:42.316Z,99.99
2023-04-27T04:06:42.455Z,99.99
2023-04-27T04:07:42.344Z,99.99
2023-04-27T04:08:42.290Z,99.99
2023-04-27T04:09:42.278Z,99.99
2023-04-27T04:10:42.241Z,99.99
2023-04-27T04:11:42.393Z,99.99
2023-04-27T04:12:42.322Z,99.99
2023-04-27T04:13:42.344Z,99.99
2023-04-27T04:14:42.362Z,99.99
2023-04-27T04:15:42.319Z,99.99
2023-04-27T04:16:42.378Z,99.99
2023-04-27T04:17:42.390Z,99.99
2023-04-27T04:18:42.164Z,99.99
2023-04-27T04:19:42.406Z,99.99
2023-04-27T04:20:42.149Z,99.99
2023-04-27T04:21:42.133Z,99.99
2023-04-27T04:22:42.305Z,99.99
2023-04-27T04:23:42.297Z,99.99
2023-04-27T04:24:42.220Z,99.99
2023-04-27T04:25:42.116Z,99.99
2023-04-27T04:26:42.056Z,99.99
2023-04-27T04:27:42.115Z,99.99
2023-04-27T04:28:42.097Z,99.99
2023-04-27T04:29:42.204Z,99.99
2023-04-27T04:30:42.218Z,99.99
2023-04-27T04:31:42.404Z,99.99
2023-04-27T04:32:42.091Z,99.99
2023-04-27T04:33:42.175Z,99.99
2023-04-27T04:34:42.030Z,99.99
2023-04-27T04:35:42.113Z,99.99
2023-04-27T04:36:42.140Z,99.99
2023-04-27T04:37:42.064Z,99.99
2023-04-27T04:38:42.017Z,99.99
2023-04-27T04:39:42.196Z,99.99
2023-04-27T04:40:44.474Z,99.99
2023-04-27T04:41:42.124Z,99.99
2023-04-27T04:42:42.799Z,99.99
2023-04-27T04:43:41.959Z,99.99
2023-04-27T04:44:42.176Z,99.99
2023-04-27T04:45:41.959Z,99.99
2023-04-27T04:46:41.928Z,99.99
2023-04-27T04:47:41.944Z,99.99
2023-04-27T04:48:41.914Z,99.99
2023-04-27T04:49:42.013Z,99.99
2023-04-27T04:50:42.106Z,99.99
2023-04-27T04:51:41.877Z,99.99
2023-04-27T04:52:41.977Z,99.99
2023-04-27T04:53:42.308Z,99.99
2023-04-27T04:54:42.052Z,99.99
2023-04-27T04:55:41.899Z,99.99
2023-04-27T04:56:41.885Z,99.99
2023-04-27T04:57:41.826Z,99.99
2023-04-27T04:58:42.089Z,99.99
2023-04-27T04:59:42.146Z,99.99
2023-04-27T05:00:42.016Z,99.99
2023-04-27T05:01:41.835Z,99.99
2023-04-27T05:02:42.034Z,99.99
2023-04-27T05:03:41.950Z,99.99
2023-04-27T05:04:41.843Z,99.99
2023-04-27T05:05:41.709Z,99.99
2023-04-27T05:06:41.741Z,99.99
2023-04-27T05:07:42.097Z,99.99
2023-04-27T05:08:42.149Z,99.99
2023-04-27T05:09:41.875Z,99.99
2023-04-27T05:10:41.741Z,99.99
2023-04-27T05:11:42.044Z,99.99
2023-04-27T05:12:41.687Z,99.99
2023-04-27T05:13:41.844Z,99.99
2023-04-27T05:14:42.089Z,99.99
2023-04-27T05:15:42.153Z,99.99
2023-04-27T05:16:42.207Z,99.99
2023-04-27T05:17:41.701Z,99.99
2023-04-27T05:18:41.695Z,99.99
2023-04-27T05:19:41.695Z,99.99
2023-04-27T05:20:41.612Z,99.99
2023-04-27T05:21:41.609Z,99.99
2023-04-27T05:22:41.578Z,99.99
2023-04-27T05:23:41.576Z,99.99
2023-04-27T05:24:41.554Z,99.99
2023-04-27T05:25:41.916Z,99.99
2023-04-27T05:26:42.019Z,99.99
2023-04-27T05:27:41.633Z,99.99
2023-04-27T05:28:41.539Z,99.99
2023-04-27T05:29:41.643Z,99.99
2023-04-27T05:30:41.519Z,99.99
2023-04-27T05:31:41.668Z,99.99
2023-04-27T05:32:41.982Z,99.99
2023-04-27T05:33:41.515Z,99.99
2023-04-27T05:34:41.444Z,99.99
2023-04-27T05:35:41.621Z,99.99
2023-04-27T05:36:41.421Z,99.99
2023-04-27T05:37:42.101Z,99.99
2023-04-27T05:38:41.632Z,99.99
2023-04-27T05:39:41.619Z,99.99
2023-04-27T05:40:41.515Z,99.99
2023-04-27T05:41:41.452Z,99.99
2023-04-27T05:42:41.619Z,99.99
2023-04-27T05:43:41.496Z,99.99
2023-04-27T05:44:41.411Z,99.99
2023-04-27T05:45:41.840Z,99.99
2023-04-27T05:46:41.393Z,99.99
2023-04-27T05:47:41.436Z,99.99
2023-04-27T05:48:41.352Z,99.99
2023-04-27T05:49:41.345Z,99.99
2023-04-27T05:50:41.426Z,99.99
2023-04-27T05:51:41.339Z,99.99
2023-04-27T05:52:41.589Z,99.99
2023-04-27T05:53:41.292Z,99.99
2023-04-27T05:54:41.619Z,99.40
2023-04-27T05:55:41.488Z,98.83
2023-04-27T05:56:41.479Z,98.73
2023-04-27T05:57:41.498Z,98.52
2023-04-27T05:58:41.809Z,98.38
2023-04-27T05:59:41.375Z,97.44
2023-04-27T06:00:41.461Z,96.92
2023-04-27T06:01:41.430Z,96.15
2023-04-27T06:02:41.678Z,95.80
2023-04-27T06:03:41.361Z,96.01
2023-04-27T06:04:41.571Z,95.65
2023-04-27T06:05:41.290Z,93.27
2023-04-27T06:06:41.311Z,93.02
2023-04-27T06:07:41.260Z,93.54
2023-04-27T06:08:41.847Z,91.88
2023-04-27T06:09:41.568Z,91.63
2023-04-27T06:10:41.192Z,91.63
2023-04-27T06:11:41.109Z,89.22
2023-04-27T06:12:41.121Z,90.14
2023-04-27T06:13:41.205Z,89.32
2023-04-27T06:14:41.252Z,87.73
2023-04-27T06:15:41.321Z,88.04
2023-04-27T06:16:41.313Z,86.79
2023-04-27T06:17:41.261Z,86.13
2023-04-27T06:18:41.055Z,86.65
2023-04-27T06:19:41.564Z,87.99
2023-04-27T06:20:41.082Z,85.78
2023-04-27T06:21:41.137Z,85.89
2023-04-27T06:22:40.997Z,85.99
2023-04-27T06:23:40.984Z,85.13
2023-04-27T06:24:41.152Z,84.41
2023-04-27T06:25:41.197Z,82.45
2023-04-27T06:26:40.972Z,84.36
2023-04-27T06:27:40.967Z,82.40
2023-04-27T06:28:40.976Z,82.61
2023-04-27T06:29:41.003Z,83.40
2023-04-27T06:30:40.930Z,84.64
2023-04-27T06:31:41.336Z,81.34
2023-04-27T06:32:41.251Z,83.71
2023-04-27T06:33:41.013Z,82.84
2023-04-27T06:34:40.959Z,83.05
2023-04-27T06:35:40.870Z,78.72
2023-04-27T06:36:40.908Z,80.68
2023-04-27T06:37:40.895Z,81.61
2023-04-27T06:38:41.000Z,80.95
2023-04-27T06:39:40.848Z,77.38
2023-04-27T06:40:40.928Z,76.35
2023-04-27T06:41:40.818Z,79.03
2023-04-27T06:42:40.769Z,79.30
2023-04-27T06:43:41.189Z,77.14
2023-04-27T06:44:40.789Z,78.14
2023-04-27T06:45:40.972Z,78.75
2023-04-27T06:46:41.013Z,75.97
2023-04-27T06:47:40.800Z,75.56
2023-04-27T06:48:40.998Z,74.02
2023-04-27T06:49:41.073Z,75.46
2023-04-27T06:50:40.740Z,74.43
2023-04-27T06:51:41.244Z,74.12
2023-04-27T06:52:40.800Z,75.77
2023-04-27T06:53:40.773Z,77.79
2023-04-27T06:54:40.684Z,74.80
2023-04-27T06:55:42.447Z,75.22
2023-04-27T06:56:40.994Z,74.67
2023-04-27T06:57:40.836Z,75.59
2023-04-27T06:58:40.660Z,72.20
2023-04-27T06:59:40.922Z,71.48
2023-04-27T07:00:40.750Z,72.30
2023-04-27T07:01:40.733Z,71.79
2023-04-27T07:02:41.062Z,72.99
2023-04-27T07:03:41.042Z,74.91
2023-04-27T07:04:40.654Z,70.79
2023-04-27T07:05:40.758Z,72.61
2023-04-27T07:06:40.569Z,73.33
2023-04-27T07:07:40.578Z,72.51
2023-04-27T07:08:40.568Z,70.94
2023-04-27T07:09:40.617Z,69.81
2023-04-27T07:10:40.958Z,70.42
2023-04-27T07:11:40.536Z,69.81
2023-04-27T07:12:40.507Z,71.31
2023-04-27T07:13:40.543Z,69.06
2023-04-27T07:14:40.660Z,66.83
2023-04-27T07:15:40.576Z,68.88
2023-04-27T07:16:40.537Z,68.24
2023-04-27T07:17:40.654Z,69.43
2023-04-27T07:18:43.230Z,67.79
2023-04-27T07:19:40.642Z,68.82
2023-04-27T07:20:40.663Z,66.87
2023-04-27T07:21:40.466Z,65.47
2023-04-27T07:22:40.533Z,69.33
2023-04-27T07:23:40.800Z,69.61
2023-04-27T07:24:40.715Z,68.83
2023-04-27T07:25:40.479Z,66.03
2023-04-27T07:26:40.470Z,64.80
2023-04-27T07:27:40.389Z,62.85
2023-04-27T07:28:40.339Z,65.18
2023-04-27T07:29:40.371Z,63.06
2023-04-27T07:30:40.513Z,63.62
2023-04-27T07:31:40.407Z,68.08
2023-04-27T07:32:40.372Z,64.78
2023-04-27T07:33:40.462Z,63.02
2023-04-27T07:34:51.857Z,60.46
2023-04-27T07:35:40.517Z,59.37
2023-04-27T07:36:40.461Z,60.80
2023-04-27T07:37:40.289Z,64.24
2023-04-27T07:38:40.322Z,64.39
2023-04-27T07:39:40.237Z,60.14
2023-04-27T07:40:40.659Z,58.18
2023-04-27T07:41:40.393Z,57.09
2023-04-27T07:42:40.255Z,61.60
2023-04-27T07:43:40.219Z,59.05
2023-04-27T07:44:40.209Z,57.96
2023-04-27T07:45:40.222Z,60.94
2023-04-27T07:46:40.335Z,63.34
2023-04-27T07:47:40.332Z,56.66
2023-04-27T07:48:40.275Z,57.12
2023-04-27T07:49:40.933Z,60.90
2023-04-27T07:50:40.134Z,66.12
2023-04-27T07:51:40.118Z,62.39
2023-04-27T07:52:40.229Z,59.00
2023-04-27T07:53:40.198Z,61.59
2023-04-27T07:54:40.219Z,60.79
2023-04-27T07:55:40.119Z,58.02
2023-04-27T07:56:40.218Z,57.33
2023-04-27T07:57:40.281Z,54.99
2023-04-27T07:58:40.042Z,50.84
2023-04-27T07:59:40.172Z,54.49
2023-04-27T08:00:40.138Z,52.97
2023-04-27T08:01:40.073Z,54.74
2023-04-27T08:02:40.445Z,54.82
2023-04-27T08:03:41.216Z,53.07
2023-04-27T08:04:40.429Z,53.37
2023-04-27T08:05:40.324Z,53.85
2023-04-27T08:06:40.572Z,49.95
2023-04-27T08:07:44.412Z,54.11
2023-04-27T08:08:40.101Z,50.03
2023-04-27T08:09:40.195Z,51.22
2023-04-27T08:10:40.071Z,51.62
2023-04-27T08:11:40.238Z,48.91
2023-04-27T08:12:40.179Z,50.94
2023-04-27T08:13:40.221Z,52.15
2023-04-27T08:14:40.227Z,50.94
2023-04-27T08:15:39.993Z,49.75
2023-04-27T08:16:39.978Z,54.69
2023-04-27T08:17:39.887Z,48.82
2023-04-27T08:18:39.970Z,48.40
2023-04-27T08:19:40.047Z,51.23
2023-04-27T08:20:39.891Z,50.98
2023-04-27T08:21:40.015Z,52.48
2023-04-27T08:22:39.996Z,52.43
2023-04-27T08:23:40.199Z,50.04
2023-04-27T08:24:39.818Z,51.56
2023-04-27T08:25:40.194Z,52.78
2023-04-27T08:26:40.189Z,52.43
2023-04-27T08:27:39.738Z,50.86
2023-04-27T08:28:39.754Z,47.25
2023-04-27T08:29:39.719Z,49.40
2023-04-27T08:30:39.728Z,49.94
2023-04-27T08:31:39.793Z,48.87
2023-04-27T08:32:40.317Z,47.55
2023-04-27T08:33:39.737Z,49.16
2023-04-27T08:34:39.792Z,50.53
2023-04-27T08:35:39.691Z,53.63
2023-04-27T08:36:39.836Z,49.80
2023-04-27T08:37:39.683Z,46.87
2023-04-27T08:38:39.720Z,46.69
2023-04-27T08:39:39.639Z,47.03
2023-04-27T08:40:39.718Z,52.76
2023-04-27T08:41:39.618Z,49.38
2023-04-27T08:42:39.738Z,50.18
2023-04-27T08:43:39.649Z,47.15
2023-04-27T08:44:39.597Z,46.54
2023-04-27T08:45:39.709Z,44.95
2023-04-27T08:46:39.693Z,46.38
2023-04-27T08:47:43.222Z,45.15
2023-04-27T08:48:39.557Z,45.87
2023-04-27T08:49:39.782Z,44.15
2023-04-27T08:50:39.635Z,45.23
2023-04-27T08:51:39.713Z,45.46
2023-04-27T08:52:39.661Z,48.58
2023-04-27T08:53:39.715Z,46.38
2023-04-27T08:54:39.727Z,45.94
2023-04-27T08:55:39.869Z,42.21
2023-04-27T08:56:39.760Z,43.65
2023-04-27T08:57:39.891Z,45.45
2023-04-27T08:58:39.643Z,44.52
2023-04-27T08:59:39.593Z,46.49
2023-04-27T09:00:39.456Z,43.53
2023-04-27T09:01:39.638Z,44.73
2023-04-27T09:02:39.666Z,46.57
2023-04-27T09:03:39.678Z,45.64
2023-04-27T09:04:39.931Z,46.57
2023-04-27T09:05:46.647Z,43.44
2023-04-27T09:06:39.450Z,44.59
2023-04-27T09:07:39.451Z,48.22
2023-04-27T09:08:39.353Z,46.57
2023-04-27T09:09:39.319Z,47.34
2023-04-27T09:10:39.336Z,44.76
2023-04-27T09:11:39.325Z,43.71
2023-04-27T09:12:39.328Z,43.51
2023-04-27T09:13:39.310Z,43.23
2023-04-27T09:14:39.281Z,43.52
2023-04-27T09:15:39.272Z,45.23
2023-04-27T09:16:39.327Z,45.03
2023-04-27T09:17:39.326Z,46.86
2023-04-27T09:18:39.241Z,44.18
2023-04-27T09:19:39.253Z,48.39
2023-04-27T09:20:39.218Z,47.45
2023-04-27T09:21:39.236Z,43.81
2023-04-27T09:22:39.203Z,41.66
2023-04-27T09:23:39.211Z,41.69
2023-04-27T09:24:39.776Z,39.62
2023-04-27T09:25:39.235Z,44.52
2023-04-27T09:26:39.155Z,45.07
2023-04-27T09:27:39.168Z,47.08
2023-04-27T09:28:39.110Z,45.36
2023-04-27T09:29:39.290Z,43.43
2023-04-27T09:30:39.111Z,44.36
2023-04-27T09:31:39.240Z,44.73
2023-04-27T09:32:39.158Z,46.95
2023-04-27T09:33:39.451Z,43.61
2023-04-27T09:34:39.089Z,43.14
2023-04-27T09:35:39.061Z,45.78
2023-04-27T09:36:39.043Z,45.42
2023-04-27T09:37:39.068Z,45.79
2023-04-27T09:38:39.272Z,45.25
2023-04-27T09:39:39.088Z,46.22
2023-04-27T09:40:39.149Z,44.58
2023-04-27T09:41:39.057Z,47.74
2023-04-27T09:42:39.014Z,42.61
2023-04-27T09:43:39.190Z,46.25
2023-04-27T09:44:38.962Z,40.21
2023-04-27T09:45:39.055Z,40.64
2023-04-27T09:46:39.342Z,40.91
2023-04-27T09:47:39.204Z,43.04
2023-04-27T09:48:38.930Z,45.04
2023-04-27T09:49:38.984Z,45.23
2023-04-27T09:50:39.196Z,43.38
2023-04-27T09:51:38.960Z,42.94
2023-04-27T09:52:38.898Z,41.73
2023-04-27T09:53:39.081Z,41.50
2023-04-27T09:54:38.859Z,42.98
2023-04-27T09:55:39.070Z,42.47
2023-04-27T09:56:38.847Z,39.47
2023-04-27T09:57:38.822Z,41.39
2023-04-27T09:58:38.960Z,43.06
2023-04-27T09:59:38.786Z,41.93
2023-04-27T10:00:39.108Z,37.93
2023-04-27T10:01:39.040Z,42.66
2023-04-27T10:02:50.249Z,46.75
2023-04-27T10:03:38.948Z,40.16
2023-04-27T10:04:39.144Z,36.76
2023-04-27T10:05:38.813Z,34.47
2023-04-27T10:06:38.914Z,39.17
2023-04-27T10:07:38.902Z,40.86
2023-04-27T10:08:38.698Z,37.57
2023-04-27T10:09:38.842Z,38.53
2023-04-27T10:10:38.814Z,40.04
2023-04-27T10:11:38.737Z,45.62
2023-04-27T10:12:38.824Z,41.54
2023-04-27T10:13:38.682Z,40.65
2023-04-27T10:14:38.637Z,41.22
2023-04-27T10:15:38.728Z,42.61
2023-04-27T10:16:38.935Z,43.61
2023-04-27T10:17:38.698Z,40.06
2023-04-27T10:18:38.729Z,42.21
2023-04-27T10:19:38.880Z,47.13
2023-04-27T10:20:38.718Z,41.12
2023-04-27T10:21:38.582Z,44.59
2023-04-27T10:22:38.690Z,38.48
2023-04-27T10:23:38.571Z,41.00
2023-04-27T10:24:38.763Z,40.16
2023-04-27T10:25:38.816Z,39.81
2023-04-27T10:26:39.989Z,39.28
2023-04-27T10:27:38.508Z,43.46
2023-04-27T10:28:38.652Z,37.08
2023-04-27T10:29:38.585Z,40.19
2023-04-27T10:30:38.601Z,39.76
2023-04-27T10:31:38.574Z,33.40
2023-04-27T10:32:38.667Z,35.50
2023-04-27T10:33:38.593Z,36.64
2023-04-27T10:34:38.508Z,37.30
2023-04-27T10:35:38.532Z,37.62
2023-04-27T10:36:38.617Z,38.70
2023-04-27T10:37:38.574Z,38.66
2023-04-27T10:38:38.659Z,36.94
2023-04-27T10:39:48.000Z,36.74
2023-04-27T10:40:38.782Z,43.32
2023-04-27T10:41:38.458Z,40.28
2023-04-27T10:42:38.498Z,38.02
2023-04-27T10:43:38.419Z,39.43
2023-04-27T10:44:38.738Z,48.43
2023-04-27T10:45:38.422Z,40.61
2023-04-27T10:46:38.507Z,43.26
2023-04-27T10:47:38.533Z,40.14
2023-04-27T10:48:38.499Z,41.80
2023-04-27T10:49:38.346Z,41.07
2023-04-27T10:50:38.330Z,45.59
2023-04-27T10:51:38.380Z,40.00
2023-04-27T10:52:38.291Z,41.03
2023-04-27T10:53:38.357Z,49.50
2023-04-27T10:54:38.264Z,41.12
2023-04-27T10:55:38.577Z,43.51
2023-04-27T10:56:38.422Z,39.47
2023-04-27T10:57:38.245Z,45.26
2023-04-27T10:58:48.275Z,41.97
2023-04-27T10:59:38.239Z,39.01
2023-04-27T11:00:38.836Z,37.85
2023-04-27T11:01:38.704Z,35.44
2023-04-27T11:02:38.469Z,41.05
2023-04-27T11:03:38.585Z,35.66
2023-04-27T11:04:38.497Z,39.38
2023-04-27T11:05:38.312Z,36.57
2023-04-27T11:06:38.176Z,35.97
2023-04-27T11:07:38.335Z,37.81
2023-04-27T11:08:38.184Z,39.58
2023-04-27T11:09:38.215Z,32.70
2023-04-27T11:10:38.181Z,34.76
2023-04-27T11:11:38.132Z,41.29
2023-04-27T11:12:38.110Z,43.28
2023-04-27T11:13:38.145Z,38.21
2023-04-27T11:14:38.278Z,43.38
2023-04-27T11:15:38.292Z,37.13
2023-04-27T11:16:38.235Z,38.94
2023-04-27T11:17:38.079Z,40.23
2023-04-27T11:18:38.045Z,36.13
2023-04-27T11:19:38.068Z,37.54
2023-04-27T11:20:38.129Z,36.21
2023-04-27T11:21:38.031Z,36.32
2023-04-27T11:22:38.131Z,35.91
2023-04-27T11:23:38.164Z,36.13
2023-04-27T11:24:37.985Z,36.15
2023-04-27T11:25:38.004Z,37.57
2023-04-27T11:26:37.997Z,35.13
2023-04-27T11:27:37.971Z,36.67
2023-04-27T11:28:38.019Z,41.47
2023-04-27T11:29:38.016Z,39.94
2023-04-27T11:30:38.965Z,36.92
2023-04-27T11:31:37.998Z,38.45
2023-04-27T11:32:37.966Z,34.42
2023-04-27T11:33:37.892Z,36.44
2023-04-27T11:34:38.889Z,36.13
2023-04-27T11:35:38.185Z,39.76
2023-04-27T11:36:38.240Z,36.24
2023-04-27T11:37:37.919Z,36.46
2023-04-27T11:38:38.064Z,39.68
2023-04-27T11:39:37.881Z,39.07
2023-04-27T11:40:38.032Z,38.27
2023-04-27T11:41:37.834Z,39.64
2023-04-27T11:42:37.832Z,34.71
2023-04-27T11:43:38.013Z,36.80
2023-04-27T11:44:37.789Z,34.11
2023-04-27T11:45:37.984Z,42.25
2023-04-27T11:46:37.967Z,35.98
2023-04-27T11:47:37.934Z,37.27
2023-04-27T11:48:37.810Z,36.87
2023-04-27T11:49:37.887Z,39.08
2023-04-27T11:50:37.833Z,32.76
2023-04-27T11:51:37.768Z,35.23
2023-04-27T11:52:37.726Z,34.76
2023-04-27T11:53:37.887Z,35.36
2023-04-27T11:54:38.345Z,39.79
2023-04-27T11:55:37.845Z,34.47
2023-04-27T11:56:37.823Z,39.55
2023-04-27T11:57:37.975Z,35.86
2023-04-27T11:58:38.304Z,36.88
2023-04-27T11:59:37.958Z,38.90
2023-04-27T12:00:37.766Z,38.59
2023-04-27T12:01:38.588Z,36.98
2023-04-27T12:02:37.896Z,41.30
2023-04-27T12:03:38.415Z,39.69
2023-04-27T12:04:38.007Z,38.98
2023-04-27T12:05:37.861Z,35.23
2023-04-27T12:06:37.798Z,36.57
2023-04-27T12:07:37.846Z,37.99
2023-04-27T12:08:37.688Z,40.30
2023-04-27T12:09:37.596Z,38.84
2023-04-27T12:10:37.569Z,40.52
2023-04-27T12:11:37.577Z,35.88
2023-04-27T12:12:37.868Z,36.54
2023-04-27T12:13:37.808Z,36.46
2023-04-27T12:14:37.572Z,36.24
2023-04-27T12:15:37.750Z,36.05
2023-04-27T12:16:37.862Z,39.17
2023-04-27T12:17:38.087Z,37.53
2023-04-27T12:18:37.488Z,39.33
2023-04-27T12:19:38.332Z,36.12
2023-04-27T12:20:37.543Z,38.88
2023-04-27T12:21:37.455Z,35.63
2023-04-27T12:22:37.442Z,37.33
2023-04-27T12:23:37.639Z,39.72
2023-04-27T12:24:37.461Z,35.72
2023-04-27T12:25:37.475Z,39.10
2023-04-27T12:26:37.951Z,39.02
2023-04-27T12:27:37.460Z,37.08
2023-04-27T12:28:38.854Z,40.70
2023-04-27T12:29:37.548Z,37.33
2023-04-27T12:30:37.453Z,35.30
2023-04-27T12:31:37.639Z,39.25
2023-04-27T12:32:37.683Z,36.81
2023-04-27T12:33:37.541Z,35.28
2023-04-27T12:34:37.494Z,32.54
2023-04-27T12:35:37.376Z,34.36
2023-04-27T12:36:37.621Z,34.25
2023-04-27T12:37:37.350Z,37.27
2023-04-27T12:38:37.351Z,36.57
2023-04-27T12:39:37.470Z,34.27
2023-04-27T12:40:37.261Z,33.80
2023-04-27T12:41:37.267Z,33.51
2023-04-27T12:42:37.437Z,36.66
2023-04-27T12:43:37.358Z,38.96
2023-04-27T12:44:37.323Z,34.32
2023-04-27T12:45:37.305Z,35.85
2023-04-27T12:46:37.214Z,38.56
2023-04-27T12:48:37.351Z,39.59
2023-04-27T12:49:37.443Z,37.19
2023-04-27T12:50:37.284Z,36.04
2023-04-27T12:51:37.393Z,39.08
2023-04-27T12:52:37.139Z,37.38
2023-04-27T12:53:37.100Z,38.55